Time;durP1;ratioP1;P1;durP2;ratioP2;P2;SDS_P1;SDS_P2;PMS_P1;PMS_P2;Temp;Humidity;BMP_temperature;BMP_pressure;BME280_temperature;BME280_humidity;BME280_pressure;Samples;Min_cycle;Max_cycle;Signal;HPM_P1;HPM_P2
2022/01/21 00:00:27;;;;;;;129.37;18.60;;;;;;;;;;5028576;28;20253;-50
2022/01/21 00:02:53;;;;;;;192.00;25.77;;;;;;;;;;5014272;28;20636;-52
2022/01/21 00:05:21;;;;;;;160.20;22.60;;;;;;;;;;5021338;28;20298;-51
2022/01/21 00:07:47;;;;;;;133.07;18.90;;;;;;;;;;5020287;28;20183;-52
2022/01/21 00:10:13;;;;;;;167.37;22.47;;;;;;;;;;5017834;28;21341;-52
2022/01/21 00:12:39;;;;;;;140.43;19.93;;;;;;;;;;5020898;28;20187;-52
2022/01/21 00:15:07;;;;;;;165.70;22.67;;;;;;;;;;5018339;28;20238;-52
2022/01/21 00:17:33;;;;;;;118.77;17.43;;;;;;;;;;5023187;28;20277;-51
2022/01/21 00:30:58;;;;;;;134.10;19.43;;;;;;;;;;5021911;28;20286;-52
2022/01/21 00:33:24;;;;;;;178.10;24.57;;;;;;;;;;5013326;28;20216;-52
2022/01/21 00:35:50;;;;;;;89.40;14.07;;;;;;;;;;5024711;28;20269;-51
2022/01/21 00:38:16;;;;;;;105.80;15.60;;;;;;;;;;5030933;28;20634;-51
2022/01/21 00:40:42;;;;;;;78.43;13.03;;;;;;;;;;5024911;28;20199;-51
2022/01/21 00:45:36;;;;;;;126.33;18.60;;;;;;;;;;5020307;28;20196;-52
2022/01/21 00:48:03;;;;;;;140.67;20.97;;;;;;;;;;5020004;28;20210;-52
2022/01/21 00:50:29;;;;;;;112.90;17.63;;;;;;;;;;5018306;28;20279;-52
2022/01/21 00:52:54;;;;;;;151.60;22.20;;;;;;;;;;5022095;28;20298;-52
2022/01/21 00:55:20;;;;;;;147.97;21.63;;;;;;;;;;5016481;28;23237;-52
2022/01/21 00:57:46;;;;;;;129.67;19.17;;;;;;;;;;5020741;28;20302;-52
2022/01/21 01:00:14;;;;;;;110.53;17.03;;;;;;;;;;5022678;28;20194;-52
2022/01/21 01:02:40;;;;;;;65.80;7.50;;;;;;;;;;5055973;23;20322;-67
2022/01/21 01:05:07;;;;;;;83.10;9.37;;;;;;;;;;5032964;28;20541;-69
2022/01/21 01:07:33;;;;;;;62.00;7.07;;;;;;;;;;5035954;28;20750;-69
2022/01/21 01:10:01;;;;;;;156.23;16.57;;;;;;;;;;5032957;28;20191;-68
2022/01/21 01:12:42;;;;;;;31.43;4.00;;;;;;;;;;5049754;28;20660;-69
2022/01/21 01:20:38;;;;;;;69.77;8.07;;;;;;;;;;5053817;28;20256;-70
2022/01/21 01:23:19;;;;;;;54.97;6.43;;;;;;;;;;5058436;28;20211;-69
2022/01/21 01:28:29;;;;;;;58.60;6.90;;;;;;;;;;5056862;28;20240;-69
2022/01/21 01:30:55;;;;;;;56.83;6.60;;;;;;;;;;5072443;28;20649;-69
2022/01/21 01:33:24;;;;;;;121.80;13.33;;;;;;;;;;5050240;28;20264;-69
2022/01/21 01:35:51;;;;;;;57.73;6.67;;;;;;;;;;5058936;28;20175;-69
2022/01/21 01:38:41;;;;;;;22.97;3.17;;;;;;;;;;5058124;28;21173;-69
2022/01/21 01:41:12;;;;;;;49.50;5.97;;;;;;;;;;5058768;28;20187;-69
2022/01/21 01:51:51;;;;;;;92.60;10.40;;;;;;;;;;5052989;28;20267;-69
2022/01/21 01:54:17;;;;;;;68.73;7.83;;;;;;;;;;5053912;28;20233;-69
2022/01/21 01:56:45;;;;;;;52.10;6.27;;;;;;;;;;5051961;28;20190;-69
2022/01/21 01:59:11;;;;;;;54.83;6.47;;;;;;;;;;5054435;28;20211;-69
2022/01/21 02:01:37;;;;;;;37.73;4.63;;;;;;;;;;5057601;28;20723;-69
2022/01/21 02:04:04;;;;;;;29.53;3.70;;;;;;;;;;5061111;28;20183;-69
2022/01/21 02:06:29;;;;;;;29.30;3.83;;;;;;;;;;5058256;28;20183;-69
2022/01/21 02:08:55;;;;;;;54.20;6.40;;;;;;;;;;5062090;28;20555;-69
2022/01/21 02:11:21;;;;;;;56.00;6.50;;;;;;;;;;5054411;28;20186;-69
2022/01/21 02:13:55;;;;;;;61.27;6.97;;;;;;;;;;5055517;28;20202;-69
2022/01/21 02:21:40;;;;;;;64.30;7.13;;;;;;;;;;5051598;28;20276;-69
2022/01/21 02:24:13;;;;;;;78.73;8.77;;;;;;;;;;5057191;28;20295;-68
2022/01/21 02:26:40;;;;;;;48.37;5.77;;;;;;;;;;5051886;28;20610;-69
2022/01/21 02:29:07;;;;;;;85.47;9.67;;;;;;;;;;5056504;28;20178;-69
2022/01/21 02:31:34;;;;;;;69.23;7.90;;;;;;;;;;5058422;28;20901;-69
2022/01/21 02:34:00;;;;;;;65.77;7.60;;;;;;;;;;5050858;28;20187;-69
2022/01/21 02:36:27;;;;;;;67.47;7.70;;;;;;;;;;5052733;28;20187;-69
2022/01/21 02:38:53;;;;;;;83.03;9.47;;;;;;;;;;5053122;28;20191;-69
2022/01/21 02:41:19;;;;;;;59.10;6.90;;;;;;;;;;5053530;28;20210;-69
2022/01/21 02:43:45;;;;;;;68.87;7.90;;;;;;;;;;5053179;28;22908;-69
2022/01/21 02:46:11;;;;;;;72.93;8.27;;;;;;;;;;5057580;28;20183;-69
2022/01/21 02:48:38;;;;;;;77.83;8.83;;;;;;;;;;5054257;28;20309;-69
2022/01/21 02:51:08;;;;;;;47.90;5.73;;;;;;;;;;5053033;28;20739;-69
2022/01/21 02:56:14;;;;;;;47.23;5.63;;;;;;;;;;5055765;28;20198;-69
2022/01/21 02:58:40;;;;;;;67.17;7.67;;;;;;;;;;5054344;28;20178;-69
2022/01/21 03:01:07;;;;;;;66.47;7.60;;;;;;;;;;5070299;28;20183;-69
2022/01/21 03:03:33;;;;;;;108.80;11.90;;;;;;;;;;5051200;28;20452;-69
2022/01/21 03:06:00;;;;;;;56.40;6.60;;;;;;;;;;5052101;28;20179;-69
2022/01/21 03:08:26;;;;;;;61.50;7.10;;;;;;;;;;5054330;28;20253;-69
2022/01/21 03:10:52;;;;;;;60.87;7.10;;;;;;;;;;5058538;28;20660;-69
2022/01/21 03:13:22;;;;;;;105.43;11.67;;;;;;;;;;5055294;28;20206;-69
2022/01/21 03:15:48;;;;;;;77.53;8.73;;;;;;;;;;5057581;28;20191;-69
2022/01/21 03:18:15;;;;;;;60.37;6.97;;;;;;;;;;5059018;28;20214;-69
2022/01/21 03:20:40;;;;;;;99.73;10.83;;;;;;;;;;5060576;28;20187;-69
2022/01/21 03:23:08;;;;;;;75.00;8.40;;;;;;;;;;5057740;28;20715;-69
2022/01/21 03:25:34;;;;;;;53.37;6.30;;;;;;;;;;5059892;28;20182;-69
2022/01/21 03:28:00;;;;;;;85.70;9.53;;;;;;;;;;5057327;28;20236;-69
2022/01/21 03:30:26;;;;;;;84.07;9.57;;;;;;;;;;5060098;28;20190;-68
2022/01/21 03:32:52;;;;;;;93.77;10.13;;;;;;;;;;5055214;28;20210;-69
2022/01/21 03:35:18;;;;;;;68.13;7.73;;;;;;;;;;5056484;28;20209;-69
2022/01/21 03:37:44;;;;;;;72.67;8.30;;;;;;;;;;5057511;28;20303;-69
2022/01/21 03:40:11;;;;;;;100.00;11.00;;;;;;;;;;5057334;28;20309;-69
2022/01/21 03:42:36;;;;;;;75.23;8.63;;;;;;;;;;5057965;28;20210;-68
2022/01/21 03:45:03;;;;;;;72.60;8.13;;;;;;;;;;5056201;28;20244;-68
2022/01/21 03:47:29;;;;;;;69.97;7.93;;;;;;;;;;5054925;28;20191;-68
2022/01/21 03:50:08;;;;;;;75.20;8.47;;;;;;;;;;5056675;28;20617;-68
2022/01/21 03:52:34;;;;;;;67.13;7.67;;;;;;;;;;5060237;28;20198;-68
2022/01/21 03:54:59;;;;;;;127.67;13.87;;;;;;;;;;5057483;28;20179;-68
2022/01/21 03:57:25;;;;;;;52.10;6.17;;;;;;;;;;5055276;28;20195;-68
2022/01/21 03:59:52;;;;;;;43.57;5.23;;;;;;;;;;5058461;28;20265;-68
2022/01/21 04:02:18;;;;;;;93.97;10.43;;;;;;;;;;5053701;28;20715;-68
2022/01/21 04:04:44;;;;;;;65.37;7.53;;;;;;;;;;5058279;28;20188;-68
2022/01/21 04:07:09;;;;;;;83.57;9.40;;;;;;;;;;5059227;28;20175;-68
2022/01/21 04:09:35;;;;;;;66.97;7.77;;;;;;;;;;5056346;28;20646;-69
2022/01/21 04:12:01;;;;;;;78.63;8.80;;;;;;;;;;5053691;28;20199;-68
2022/01/21 04:14:31;;;;;;;67.83;7.77;;;;;;;;;;5058651;28;20183;-69
2022/01/21 04:16:57;;;;;;;68.20;7.80;;;;;;;;;;5054717;28;20187;-69
2022/01/21 04:19:23;;;;;;;77.40;8.80;;;;;;;;;;5056781;28;20797;-68
2022/01/21 04:21:49;;;;;;;67.10;7.67;;;;;;;;;;5058491;28;20214;-69
2022/01/21 04:24:16;;;;;;;60.53;6.97;;;;;;;;;;5056338;28;20198;-69
2022/01/21 04:26:42;;;;;;;50.07;6.00;;;;;;;;;;5053258;28;20183;-69
2022/01/21 04:29:07;;;;;;;81.23;9.03;;;;;;;;;;5057487;28;20764;-69
2022/01/21 04:31:33;;;;;;;63.97;7.33;;;;;;;;;;5056251;28;20186;-69
2022/01/21 04:33:59;;;;;;;80.70;9.07;;;;;;;;;;5055481;28;20236;-69
2022/01/21 04:36:25;;;;;;;61.67;7.10;;;;;;;;;;5055941;28;20204;-69
2022/01/21 04:38:54;;;;;;;62.97;7.13;;;;;;;;;;5056679;28;20172;-69
2022/01/21 04:49:34;;;;;;;32.60;4.17;;;;;;;;;;5059234;28;20237;-69
2022/01/21 04:52:03;;;;;;;55.00;6.40;;;;;;;;;;5056416;28;20703;-69
2022/01/21 04:54:30;;;;;;;43.97;5.23;;;;;;;;;;5061220;28;20714;-69
2022/01/21 04:56:56;;;;;;;44.10;5.30;;;;;;;;;;5054936;28;20187;-69
2022/01/21 04:59:22;;;;;;;63.83;7.30;;;;;;;;;;5056482;28;20244;-69
2022/01/21 05:01:48;;;;;;;37.37;4.53;;;;;;;;;;5060330;28;20260;-69
2022/01/21 05:04:14;;;;;;;68.90;7.83;;;;;;;;;;5061155;28;20247;-69
2022/01/21 05:06:41;;;;;;;36.67;4.43;;;;;;;;;;5054389;28;20183;-68
2022/01/21 05:09:07;;;;;;;44.90;5.43;;;;;;;;;;5059550;28;20191;-68
2022/01/21 05:11:36;;;;;;;44.43;5.13;;;;;;;;;;5054761;28;20210;-68
2022/01/21 05:14:15;;;;;;;77.70;8.67;;;;;;;;;;5056241;28;20191;-68
2022/01/21 05:16:47;;;;;;;69.60;7.83;;;;;;;;;;5057421;28;20213;-68
2022/01/21 05:19:15;;;;;;;84.67;9.40;;;;;;;;;;5059375;28;20644;-68
2022/01/21 05:21:41;;;;;;;60.00;6.97;;;;;;;;;;5059327;28;20297;-68
2022/01/21 05:24:08;;;;;;;67.03;7.67;;;;;;;;;;5051716;28;20195;-68
2022/01/21 05:26:39;;;;;;;76.80;8.73;;;;;;;;;;5053627;28;21189;-68
2022/01/21 05:29:05;;;;;;;71.03;8.03;;;;;;;;;;5056446;28;20258;-68
2022/01/21 05:31:31;;;;;;;81.37;9.10;;;;;;;;;;5055027;28;20187;-68
2022/01/21 05:33:57;;;;;;;90.80;10.20;;;;;;;;;;5054104;28;20185;-68
2022/01/21 05:36:23;;;;;;;56.40;6.53;;;;;;;;;;5078645;28;20547;-68
2022/01/21 05:38:49;;;;;;;52.83;6.30;;;;;;;;;;5063430;28;20187;-68
2022/01/21 05:41:18;;;;;;;61.17;7.03;;;;;;;;;;5054817;28;20217;-68
2022/01/21 05:43:46;;;;;;;38.00;4.60;;;;;;;;;;5056101;28;20272;-68
2022/01/21 05:46:23;;;;;;;159.10;17.63;;;;;;;;;;5052054;28;20683;-69
2022/01/21 05:48:49;;;;;;;99.67;10.77;;;;;;;;;;5056692;28;20191;-69
2022/01/21 05:51:16;;;;;;;82.13;9.20;;;;;;;;;;5055065;28;20190;-70
2022/01/21 05:53:42;;;;;;;57.43;6.67;;;;;;;;;;5057009;28;20290;-69
2022/01/21 05:56:08;;;;;;;109.30;11.80;;;;;;;;;;5057806;28;20277;-69
2022/01/21 05:58:34;;;;;;;104.47;11.37;;;;;;;;;;5057228;28;20183;-69
2022/01/21 06:01:00;;;;;;;90.43;10.03;;;;;;;;;;5056389;28;20265;-69
2022/01/21 06:03:26;;;;;;;60.00;6.83;;;;;;;;;;5066624;28;20753;-69
2022/01/21 06:05:52;;;;;;;32.83;4.10;;;;;;;;;;5061769;28;20182;-69
2022/01/21 06:08:18;;;;;;;52.53;6.17;;;;;;;;;;5063169;28;20179;-70
2022/01/21 06:10:44;;;;;;;48.10;5.73;;;;;;;;;;5057117;28;20530;-69
2022/01/21 06:13:15;;;;;;;86.23;9.47;;;;;;;;;;5058226;28;20206;-69
2022/01/21 06:15:41;;;;;;;56.93;6.57;;;;;;;;;;5054605;28;20183;-69
2022/01/21 06:18:07;;;;;;;130.70;14.07;;;;;;;;;;5049433;28;20270;-69
2022/01/21 06:20:33;;;;;;;40.60;4.97;;;;;;;;;;5053847;28;20860;-69
2022/01/21 06:22:59;;;;;;;68.17;7.70;;;;;;;;;;5054038;28;20229;-69
2022/01/21 06:25:25;;;;;;;85.30;9.50;;;;;;;;;;5051464;28;20202;-69
2022/01/21 06:27:51;;;;;;;62.90;7.10;;;;;;;;;;5059385;28;20529;-69
2022/01/21 06:30:17;;;;;;;49.33;5.87;;;;;;;;;;5053432;28;20191;-69
2022/01/21 06:32:43;;;;;;;60.83;7.17;;;;;;;;;;5060644;28;20229;-68
2022/01/21 06:35:09;;;;;;;133.83;14.60;;;;;;;;;;5056562;28;20194;-67
2022/01/21 06:37:35;;;;;;;69.73;7.93;;;;;;;;;;5056918;28;20183;-68
2022/01/21 06:40:01;;;;;;;115.83;12.60;;;;;;;;;;5035045;28;20191;-69
2022/01/21 06:42:29;;;;;;;69.13;7.93;;;;;;;;;;5054919;28;20225;-69
2022/01/21 06:44:55;;;;;;;106.40;11.60;;;;;;;;;;5049733;28;20217;-68
2022/01/21 06:47:21;;;;;;;84.90;9.40;;;;;;;;;;5052959;28;20190;-68
2022/01/21 06:49:47;;;;;;;103.43;11.40;;;;;;;;;;5054230;28;20209;-68
2022/01/21 06:52:13;;;;;;;92.23;10.23;;;;;;;;;;5048831;28;20210;-67
2022/01/21 06:54:39;;;;;;;133.70;14.33;;;;;;;;;;5047364;28;21519;-67
2022/01/21 06:57:05;;;;;;;56.43;6.50;;;;;;;;;;5058158;28;20191;-68
2022/01/21 06:59:31;;;;;;;93.83;10.27;;;;;;;;;;5052393;28;20210;-68
2022/01/21 07:04:43;;;;;;;118.90;17.57;;;;;;;;;;5063456;28;20565;-46
2022/01/21 07:07:10;;;;;;;106.63;16.23;;;;;;;;;;5063889;28;20175;-46
2022/01/21 07:09:36;;;;;;;116.97;16.27;;;;;;;;;;5062466;28;20182;-46
2022/01/21 07:12:02;;;;;;;104.47;14.97;;;;;;;;;;5061728;28;20181;-46
2022/01/21 07:14:28;;;;;;;69.23;11.47;;;;;;;;;;5062355;28;20529;-46
2022/01/21 07:16:54;;;;;;;55.73;9.87;;;;;;;;;;5064097;28;20494;-45
2022/01/21 07:19:20;;;;;;;66.30;11.93;;;;;;;;;;5064350;28;20167;-45
2022/01/21 07:21:47;;;;;;;61.80;11.60;;;;;;;;;;5063475;28;20272;-46
2022/01/21 07:24:13;;;;;;;86.93;13.43;;;;;;;;;;5062827;28;20307;-45
2022/01/21 07:26:39;;;;;;;92.33;13.80;;;;;;;;;;5061736;28;20250;-45
2022/01/21 07:29:05;;;;;;;86.80;12.50;;;;;;;;;;5061952;28;20167;-46
2022/01/21 07:31:31;;;;;;;60.90;9.70;;;;;;;;;;5062958;28;20183;-46
2022/01/21 07:33:58;;;;;;;59.37;9.50;;;;;;;;;;5065205;28;20207;-46
2022/01/21 07:36:24;;;;;;;63.30;10.17;;;;;;;;;;5064619;28;20178;-46
2022/01/21 07:38:50;;;;;;;72.77;10.87;;;;;;;;;;5064651;28;20531;-46
2022/01/21 07:41:16;;;;;;;79.77;12.07;;;;;;;;;;5064794;28;20179;-46
2022/01/21 07:43:42;;;;;;;49.10;9.87;;;;;;;;;;5064005;28;20205;-45
2022/01/21 07:46:08;;;;;;;71.37;12.10;;;;;;;;;;5062444;28;20272;-45
2022/01/21 07:48:34;;;;;;;66.93;11.63;;;;;;;;;;5061320;28;20619;-45
2022/01/21 07:51:00;;;;;;;67.67;11.57;;;;;;;;;;5061789;28;20171;-45
2022/01/21 07:53:26;;;;;;;54.10;10.37;;;;;;;;;;5063475;28;20233;-45
2022/01/21 07:55:52;;;;;;;59.67;10.93;;;;;;;;;;5062542;28;20180;-45
2022/01/21 07:58:19;;;;;;;67.37;11.47;;;;;;;;;;5062399;28;20310;-45
2022/01/21 08:00:45;;;;;;;37.30;7.90;;;;;;;;;;5061706;28;20265;-45
2022/01/21 08:03:12;;;;;;;81.23;13.17;;;;;;;;;;5061573;28;20245;-45
2022/01/21 08:05:38;;;;;;;80.30;13.17;;;;;;;;;;5060857;28;20265;-46
2022/01/21 08:08:04;;;;;;;96.73;14.87;;;;;;;;;;5060033;28;20587;-46
2022/01/21 08:10:31;;;;;;;82.70;13.43;;;;;;;;;;5059651;28;20187;-47
2022/01/21 08:12:57;;;;;;;73.40;11.90;;;;;;;;;;5060172;28;20289;-46
2022/01/21 08:15:23;;;;;;;74.90;12.07;;;;;;;;;;5050233;28;20660;-46
2022/01/21 08:17:49;;;;;;;74.13;12.53;;;;;;;;;;5047901;28;20198;-46
2022/01/21 08:20:15;;;;;;;90.97;14.03;;;;;;;;;;5046220;28;20167;-46
2022/01/21 08:22:41;;;;;;;58.10;10.93;;;;;;;;;;5046556;28;20198;-45
2022/01/21 08:25:08;;;;;;;84.47;13.63;;;;;;;;;;5047015;28;20179;-46
2022/01/21 08:27:34;;;;;;;76.07;12.67;;;;;;;;;;5046677;28;20192;-46
2022/01/21 08:30:00;;;;;;;52.73;9.87;;;;;;;;;;5050990;28;20937;-46
2022/01/21 08:32:28;;;;;;;73.07;11.97;;;;;;;;;;5043048;28;20184;-45
2022/01/21 08:34:54;;;;;;;64.43;11.37;;;;;;;;;;5037612;28;20256;-45
2022/01/21 08:37:20;;;;;;;74.40;12.57;;;;;;;;;;5039309;28;20266;-45
2022/01/21 08:39:46;;;;;;;87.80;14.10;;;;;;;;;;5045339;28;20196;-45
2022/01/21 08:42:12;;;;;;;68.43;11.63;;;;;;;;;;5047476;28;20190;-45
2022/01/21 08:44:38;;;;;;;83.17;13.40;;;;;;;;;;5046079;28;20231;-45
2022/01/21 08:47:05;;;;;;;82.57;13.27;;;;;;;;;;5045915;28;20183;-45
2022/01/21 08:49:31;;;;;;;76.07;12.83;;;;;;;;;;5047070;28;20681;-45
2022/01/21 08:51:58;;;;;;;81.07;13.47;;;;;;;;;;5046702;28;20176;-45
2022/01/21 08:54:25;;;;;;;65.70;11.37;;;;;;;;;;5045263;28;20233;-46
2022/01/21 08:56:52;;;;;;;67.80;11.73;;;;;;;;;;5046523;28;20668;-45
2022/01/21 08:59:19;;;;;;;79.03;12.80;;;;;;;;;;5046050;28;20179;-46
2022/01/21 09:01:46;;;;;;;81.60;13.57;;;;;;;;;;5045537;28;20237;-45
2022/01/21 09:04:12;;;;;;;70.70;12.37;;;;;;;;;;5045482;28;20212;-46
2022/01/21 09:06:38;;;;;;;69.60;12.50;;;;;;;;;;5045094;28;20643;-46
2022/01/21 09:09:05;;;;;;;79.83;13.60;;;;;;;;;;5045709;28;20290;-45
2022/01/21 09:11:31;;;;;;;80.10;13.70;;;;;;;;;;5046068;28;20615;-45
2022/01/21 09:13:57;;;;;;;63.03;10.87;;;;;;;;;;5044895;28;20691;-45
2022/01/21 09:16:24;;;;;;;76.37;13.43;;;;;;;;;;5045722;28;20183;-45
2022/01/21 09:18:58;;;;;;;56.87;10.30;;;;;;;;;;5045944;28;20257;-45
2022/01/21 09:21:25;;;;;;;81.43;13.63;;;;;;;;;;5046565;28;20179;-45
2022/01/21 09:23:52;;;;;;;79.40;13.60;;;;;;;;;;5044892;28;20211;-45
2022/01/21 09:26:19;;;;;;;63.23;10.97;;;;;;;;;;5043925;28;20188;-45
2022/01/21 09:28:46;;;;;;;72.87;12.87;;;;;;;;;;5045142;28;20183;-45
2022/01/21 09:31:12;;;;;;;84.53;14.40;;;;;;;;;;5044602;28;20210;-46
2022/01/21 09:33:39;;;;;;;71.23;12.10;;;;;;;;;;5044197;28;20226;-45
2022/01/21 09:36:05;;;;;;;79.73;12.87;;;;;;;;;;5044742;28;20530;-45
2022/01/21 09:38:31;;;;;;;77.63;12.83;;;;;;;;;;5045595;28;20234;-45
2022/01/21 09:40:58;;;;;;;70.90;11.87;;;;;;;;;;5045905;28;20220;-45
2022/01/21 09:43:23;;;;;;;67.97;12.33;;;;;;;;;;5045710;28;20294;-45
2022/01/21 09:45:52;;;;;;;80.27;13.97;;;;;;;;;;5045244;28;20286;-46
2022/01/21 09:48:28;;;;;;;99.90;15.83;;;;;;;;;;5045590;28;20324;-45
2022/01/21 09:50:56;;;;;;;62.37;11.23;;;;;;;;;;5045205;28;20557;-45
2022/01/21 09:53:26;;;;;;;74.70;12.83;;;;;;;;;;5045583;28;20296;-46
2022/01/21 09:55:53;;;;;;;70.60;11.87;;;;;;;;;;5044816;28;20168;-45
2022/01/21 09:58:19;;;;;;;70.40;12.63;;;;;;;;;;5044972;28;20183;-45
2022/01/21 10:00:45;;;;;;;57.67;11.07;;;;;;;;;;5045027;28;20195;-45
2022/01/21 10:03:11;;;;;;;74.53;12.43;;;;;;;;;;5045312;28;20298;-45
2022/01/21 10:05:38;;;;;;;74.40;13.10;;;;;;;;;;5045297;28;20195;-45
2022/01/21 10:08:04;;;;;;;70.90;11.70;;;;;;;;;;5043748;28;20241;-45
2022/01/21 10:10:30;;;;;;;81.63;12.97;;;;;;;;;;5044307;28;20191;-45
2022/01/21 10:13:02;;;;;;;73.37;12.37;;;;;;;;;;5044476;28;20643;-45
2022/01/21 10:15:28;;;;;;;71.03;12.47;;;;;;;;;;5043029;28;20156;-45
2022/01/21 10:18:03;;;;;;;72.00;12.40;;;;;;;;;;5045034;28;20168;-45
2022/01/21 10:20:29;;;;;;;85.13;13.97;;;;;;;;;;5044220;28;20175;-45
2022/01/21 10:23:00;;;;;;;76.37;13.00;;;;;;;;;;5045981;28;20557;-45
2022/01/21 10:25:26;;;;;;;82.20;13.43;;;;;;;;;;5044503;28;20560;-45
2022/01/21 10:27:53;;;;;;;73.50;12.63;;;;;;;;;;5045829;28;20179;-46
2022/01/21 10:30:20;;;;;;;76.87;13.13;;;;;;;;;;5045152;28;20175;-45
2022/01/21 10:32:46;;;;;;;84.90;14.07;;;;;;;;;;5045206;28;20299;-45
2022/01/21 10:35:18;;;;;;;72.67;12.80;;;;;;;;;;5043533;28;20259;-45
2022/01/21 10:37:44;;;;;;;76.47;13.07;;;;;;;;;;5045461;28;20198;-45
2022/01/21 10:40:11;;;;;;;86.27;14.40;;;;;;;;;;5043727;28;20175;-45
2022/01/21 10:42:37;;;;;;;83.67;13.97;;;;;;;;;;5043029;28;20175;-45
2022/01/21 10:45:07;;;;;;;83.17;13.33;;;;;;;;;;5043626;28;20174;-45
2022/01/21 10:47:35;;;;;;;72.70;12.50;;;;;;;;;;5044304;28;20180;-45
2022/01/21 10:50:03;;;;;;;74.80;13.27;;;;;;;;;;5044857;28;20179;-45
2022/01/21 10:52:38;;;;;;;65.03;11.53;;;;;;;;;;5043844;28;20168;-45
2022/01/21 10:55:06;;;;;;;83.10;14.00;;;;;;;;;;5043278;28;20167;-45
2022/01/21 10:57:32;;;;;;;83.50;13.67;;;;;;;;;;5044720;28;20172;-45
2022/01/21 11:00:04;;;;;;;62.43;11.07;;;;;;;;;;5045235;28;20176;-45
2022/01/21 11:02:31;;;;;;;70.93;11.83;;;;;;;;;;5044177;28;20190;-45
2022/01/21 11:05:00;;;;;;;74.87;12.97;;;;;;;;;;5044798;28;20227;-45
2022/01/21 11:07:44;;;;;;;68.23;11.87;;;;;;;;;;5046038;28;20492;-46
2022/01/21 11:10:10;;;;;;;88.73;14.20;;;;;;;;;;5044076;28;20171;-45
2022/01/21 11:12:36;;;;;;;81.80;13.60;;;;;;;;;;5044668;28;20590;-45
2022/01/21 11:15:04;;;;;;;69.13;12.10;;;;;;;;;;5045124;28;20171;-45
2022/01/21 11:17:30;;;;;;;70.10;12.00;;;;;;;;;;5043586;28;20601;-45
2022/01/21 11:20:18;;;;;;;55.30;10.77;;;;;;;;;;5045107;28;20253;-45
2022/01/21 11:22:54;;;;;;;68.47;11.37;;;;;;;;;;5045199;28;20191;-45
2022/01/21 11:25:40;;;;;;;82.70;13.80;;;;;;;;;;5044464;28;20612;-45
2022/01/21 11:28:06;;;;;;;70.67;12.10;;;;;;;;;;5044267;28;20191;-45
2022/01/21 11:30:32;;;;;;;67.13;11.43;;;;;;;;;;5043853;28;20270;-45
2022/01/21 11:32:58;;;;;;;67.17;12.20;;;;;;;;;;5045338;28;20213;-45
2022/01/21 11:35:25;;;;;;;92.43;15.00;;;;;;;;;;5042206;28;20579;-45
2022/01/21 11:37:51;;;;;;;76.73;13.00;;;;;;;;;;5044166;28;20188;-45
2022/01/21 11:40:17;;;;;;;77.07;13.47;;;;;;;;;;5043287;28;20211;-45
2022/01/21 11:42:43;;;;;;;70.33;12.30;;;;;;;;;;5045366;28;20234;-45
2022/01/21 11:45:30;;;;;;;66.77;12.53;;;;;;;;;;5043492;28;20263;-46
2022/01/21 11:50:48;;;;;;;85.13;14.27;;;;;;;;;;5033298;28;20180;-45
2022/01/21 11:53:14;;;;;;;87.97;15.10;;;;;;;;;;5046540;28;20210;-45
2022/01/21 11:55:45;;;;;;;92.87;14.97;;;;;;;;;;5048116;28;20179;-45
2022/01/21 11:58:19;;;;;;;81.50;14.53;;;;;;;;;;5048373;28;20213;-45
2022/01/21 12:00:47;;;;;;;73.23;12.73;;;;;;;;;;5049182;28;20271;-45
2022/01/21 12:03:14;;;;;;;72.33;12.30;;;;;;;;;;5048428;28;20226;-45
2022/01/21 12:05:40;;;;;;;56.13;10.57;;;;;;;;;;5048924;28;20243;-45
2022/01/21 12:08:06;;;;;;;72.83;12.40;;;;;;;;;;5049311;28;20176;-45
2022/01/21 12:10:36;;;;;;;69.10;11.77;;;;;;;;;;5048999;28;20264;-45
2022/01/21 12:13:12;;;;;;;54.93;10.07;;;;;;;;;;5049186;28;20230;-45
2022/01/21 12:15:45;;;;;;;80.73;13.63;;;;;;;;;;5047291;28;20254;-45
2022/01/21 12:20:43;;;;;;;73.60;13.83;;;;;;;;;;5048394;28;20171;-45
2022/01/21 12:23:12;;;;;;;82.13;14.27;;;;;;;;;;5047761;28;20635;-45
2022/01/21 12:25:58;;;;;;;81.10;15.03;;;;;;;;;;5047965;28;20190;-45
2022/01/21 12:28:24;;;;;;;61.30;11.47;;;;;;;;;;5046672;28;20233;-45
2022/01/21 12:30:53;;;;;;;87.07;14.83;;;;;;;;;;5046638;28;20519;-45
2022/01/21 12:33:19;;;;;;;76.53;13.53;;;;;;;;;;5047150;28;20211;-45
2022/01/21 12:35:46;;;;;;;74.20;13.73;;;;;;;;;;5047900;28;20176;-45
2022/01/21 12:40:54;;;;;;;89.40;15.17;;;;;;;;;;5046944;28;20156;-45
2022/01/21 12:43:39;;;;;;;66.13;12.17;;;;;;;;;;5048600;28;20218;-45
2022/01/21 12:46:07;;;;;;;70.63;12.63;;;;;;;;;;5048861;28;20206;-45
2022/01/21 12:48:38;;;;;;;87.73;14.83;;;;;;;;;;5046892;28;20215;-45
2022/01/21 12:51:20;;;;;;;81.33;13.73;;;;;;;;;;5046811;28;20576;-45
2022/01/21 12:55:55;;;;;;;62.03;11.97;;;;;;;;;;5045711;28;20662;-45
2022/01/21 12:56:43;;;;;;;55.53;11.33;;;;;;;;;;5044727;28;20223;-45
2022/01/21 12:59:15;;;;;;;62.97;12.00;;;;;;;;;;5047458;28;20555;-46
2022/01/21 13:01:42;;;;;;;59.07;11.60;;;;;;;;;;5046967;28;20567;-45
2022/01/21 13:04:11;;;;;;;219.47;25.20;;;;;;;;;;5034445;22;20242;-48
2022/01/21 13:06:37;;;;;;;158.50;18.43;;;;;;;;;;5010768;28;20243;-48
2022/01/21 13:09:08;;;;;;;150.40;18.37;;;;;;;;;;5015446;28;20188;-48
2022/01/21 13:11:36;;;;;;;123.97;14.63;;;;;;;;;;5011712;28;20190;-48
2022/01/21 13:14:22;;;;;;;247.73;28.50;;;;;;;;;;5017025;28;20298;-49
2022/01/21 13:16:54;;;;;;;98.93;11.97;;;;;;;;;;5026067;28;20186;-47
2022/01/21 13:19:19;;;;;;;106.47;12.97;;;;;;;;;;5022954;28;20708;-48
2022/01/21 13:21:46;;;;;;;166.27;20.77;;;;;;;;;;5015065;28;20188;-48
2022/01/21 13:24:25;;;;;;;122.07;16.67;;;;;;;;;;5022139;28;20536;-48
2022/01/21 13:26:52;;;;;;;129.83;19.23;;;;;;;;;;5026144;28;20325;-48
2022/01/21 13:29:18;;;;;;;89.33;16.00;;;;;;;;;;5030758;28;20230;-48
2022/01/21 13:31:48;;;;;;;90.67;23.20;;;;;;;;;;5029706;28;20256;-48
2022/01/21 13:34:14;;;;;;;86.50;20.47;;;;;;;;;;5028661;28;20261;-47
2022/01/21 13:36:40;;;;;;;122.53;17.57;;;;;;;;;;5030935;28;20192;-49
2022/01/21 13:39:09;;;;;;;96.00;14.30;;;;;;;;;;5026782;28;20240;-48
2022/01/21 13:41:46;;;;;;;117.07;17.13;;;;;;;;;;5021333;28;20188;-48
2022/01/21 13:44:12;;;;;;;168.63;23.67;;;;;;;;;;5027646;28;20203;-48
2022/01/21 13:46:39;;;;;;;97.90;14.10;;;;;;;;;;5029630;28;20274;-48
2022/01/21 13:49:05;;;;;;;91.90;12.93;;;;;;;;;;5029871;28;20188;-49
2022/01/21 13:51:31;;;;;;;39.13;6.47;;;;;;;;;;5023336;28;20184;-48
2022/01/21 13:54:10;;;;;;;84.20;12.27;;;;;;;;;;5032826;28;20300;-48
2022/01/21 13:56:36;;;;;;;81.30;11.80;;;;;;;;;;5029365;28;20465;-49
2022/01/21 13:59:02;;;;;;;239.20;31.53;;;;;;;;;;5026076;28;20242;-48
2022/01/21 14:01:30;;;;;;;129.43;17.80;;;;;;;;;;5027926;28;20184;-48
2022/01/21 14:03:58;;;;;;;107.67;14.57;;;;;;;;;;5029986;28;20316;-48
2022/01/21 14:06:23;;;;;;;145.17;19.30;;;;;;;;;;5029087;28;20279;-49
2022/01/21 14:08:50;;;;;;;125.17;16.77;;;;;;;;;;5027081;28;20180;-48
2022/01/21 14:11:30;;;;;;;52.93;7.67;;;;;;;;;;5018160;28;20549;-48
2022/01/21 14:14:00;;;;;;;185.00;25.53;;;;;;;;;;5025844;28;20232;-48
2022/01/21 14:16:28;;;;;;;107.50;15.90;;;;;;;;;;5025245;28;20188;-48
2022/01/21 14:18:55;;;;;;;79.17;13.53;;;;;;;;;;5031185;28;20190;-48
2022/01/21 14:21:25;;;;;;;72.90;12.30;;;;;;;;;;5019245;28;20383;-48
2022/01/21 14:23:53;;;;;;;167.70;26.30;;;;;;;;;;5022289;28;20219;-49
2022/01/21 14:26:20;;;;;;;122.83;19.37;;;;;;;;;;5021627;28;20198;-48
2022/01/21 14:28:46;;;;;;;120.77;18.30;;;;;;;;;;5030363;28;20215;-49
2022/01/21 14:31:30;;;;;;;107.63;16.33;;;;;;;;;;5030438;28;20218;-49
2022/01/21 14:33:57;;;;;;;125.47;19.40;;;;;;;;;;5024048;28;20274;-49
2022/01/21 14:36:23;;;;;;;140.77;20.97;;;;;;;;;;5029429;28;20222;-49
2022/01/21 14:38:50;;;;;;;118.53;17.67;;;;;;;;;;5027436;28;20266;-48
2022/01/21 14:41:16;;;;;;;265.90;38.03;;;;;;;;;;5012542;28;20187;-48
2022/01/21 14:43:52;;;;;;;98.87;14.23;;;;;;;;;;5010282;28;20932;-49
2022/01/21 14:46:24;;;;;;;129.27;17.83;;;;;;;;;;5030261;28;20179;-48
2022/01/21 14:49:00;;;;;;;97.03;13.40;;;;;;;;;;5023965;28;20195;-49
2022/01/21 14:52:03;;;;;;;111.73;15.40;;;;;;;;;;5027053;28;20195;-49
2022/01/21 14:54:37;;;;;;;86.70;12.37;;;;;;;;;;5021868;28;20329;-48
2022/01/21 14:57:04;;;;;;;91.47;12.83;;;;;;;;;;5024519;28;20214;-48
2022/01/21 14:59:31;;;;;;;149.23;19.93;;;;;;;;;;5020580;28;20473;-49
2022/01/21 15:02:04;;;;;;;126.83;17.20;;;;;;;;;;5028274;28;20180;-48
2022/01/21 15:04:35;;;;;;;121.50;16.53;;;;;;;;;;5021610;28;20211;-49
2022/01/21 15:07:11;;;;;;;115.43;15.13;;;;;;;;;;5017633;28;20570;-48
2022/01/21 15:09:41;;;;;;;164.10;21.30;;;;;;;;;;5025211;28;20245;-49
2022/01/21 15:14:59;;;;;;;83.60;10.33;;;;;;;;;;4988461;28;20187;-48
2022/01/21 15:17:26;;;;;;;112.87;13.90;;;;;;;;;;5025821;28;20180;-48
2022/01/21 15:19:54;;;;;;;159.17;19.23;;;;;;;;;;5024715;28;20195;-49
2022/01/21 15:22:24;;;;;;;144.27;18.63;;;;;;;;;;5026255;28;20187;-49